Time;durP1;ratioP1;P1;durP2;ratioP2;P2;SDS_P1;SDS_P2;PMS_P1;PMS_P2;Temp;Humidity;BMP_temperature;BMP_pressure;BME280_temperature;BME280_humidity;BME280_pressure;Samples;Min_cycle;Max_cycle;Signal;HPM_P1;HPM_P2
2023/12/01 00:00:18;;;;;;;9.02;5.22;;;;;;;5.88;71.90;98868.06;4911206;29;20031;-95
2023/12/01 00:02:46;;;;;;;8.02;5.03;;;;;;;6.07;71.41;98879.28;4910840;29;20122;-95
2023/12/01 00:05:12;;;;;;;7.07;4.75;;;;;;;6.22;70.65;98889.31;4911407;29;20028;-95
2023/12/01 00:07:38;;;;;;;10.77;4.85;;;;;;;6.21;70.34;98880.50;4894914;29;20148;-96
2023/12/01 00:10:08;;;;;;;6.40;4.78;;;;;;;6.30;69.85;98883.50;4893999;29;20059;-95
2023/12/01 00:12:37;;;;;;;6.78;4.53;;;;;;;6.33;69.57;98877.69;4910488;29;20071;-96
2023/12/01 00:15:06;;;;;;;5.82;4.32;;;;;;;6.39;69.74;98882.00;4898866;29;20031;-96
2023/12/01 00:17:46;;;;;;;10.57;4.45;;;;;;;6.56;69.14;98900.63;4929802;29;20043;-95
2023/12/01 00:20:25;;;;;;;;;;;;;;;;;;;;;
2023/12/01 00:23:00;;;;;;;7.45;4.65;;;;;;;6.57;68.65;98888.84;4917758;29;20115;-96
2023/12/01 00:25:30;;;;;;;11.45;7.15;;;;;;;6.45;68.38;98877.50;4901225;29;20071;-95
2023/12/01 00:27:58;;;;;;;7.88;4.65;;;;;;;6.54;68.69;98896.59;4930693;29;20031;-95
2023/12/01 00:30:32;;;;;;;11.20;7.30;;;;;;;6.39;68.90;98886.53;4899830;29;20067;-96
2023/12/01 00:33:00;;;;;;;17.45;8.50;;;;;;;6.32;69.07;98896.63;4915459;29;20032;-95
2023/12/01 00:35:29;;;;;;;14.75;8.60;;;;;;;6.13;69.95;98883.63;4898332;29;20038;-96
2023/12/01 00:38:03;;;;;;;14.52;9.75;;;;;;;6.02;69.77;98880.03;4914964;29;20023;-95
2023/12/01 00:40:32;;;;;;;13.18;8.68;;;;;;;6.16;69.76;98912.50;4915693;29;20035;-96
2023/12/01 00:43:00;;;;;;;16.00;9.40;;;;;;;5.97;69.96;98881.81;4900413;29;20098;-96
2023/12/01 00:45:39;;;;;;;17.27;9.48;;;;;;;5.96;70.24;98878.34;4914564;29;20413;-96
2023/12/01 00:48:25;;;;;;;14.10;8.45;;;;;;;5.95;70.35;98889.28;4900930;29;20038;-95
2023/12/01 00:50:58;;;;;;;18.80;8.70;;;;;;;5.89;70.71;98885.72;4929351;29;20047;-95
2023/12/01 00:53:27;;;;;;;16.42;8.43;;;;;;;5.90;70.62;98876.66;4897872;29;20476;-96
2023/12/01 00:56:05;;;;;;;14.20;7.72;;;;;;;5.90;70.84;98870.50;4914678;29;20060;-95
2023/12/01 00:58:38;;;;;;;11.25;6.82;;;;;;;5.97;71.04;98884.50;4928504;29;20036;-95
2023/12/01 01:01:08;;;;;;;12.43;6.72;;;;;;;5.85;71.10;98869.41;4929310;29;20038;-95
2023/12/01 01:03:34;;;;;;;12.73;6.28;;;;;;;5.86;71.17;98875.53;4913287;29;20042;-95
2023/12/01 01:06:03;;;;;;;10.73;6.07;;;;;;;5.98;71.27;98884.25;4913119;29;20028;-95
2023/12/01 01:08:37;;;;;;;9.05;5.43;;;;;;;5.94;70.83;98871.63;4912202;29;20031;-96
2023/12/01 01:11:03;;;;;;;10.80;5.80;;;;;;;5.90;70.70;98867.84;4899126;29;20195;-96
2023/12/01 01:13:32;;;;;;;9.43;5.47;;;;;;;5.97;71.26;98882.63;4914321;29;20038;-96
2023/12/01 01:16:00;;;;;;;6.85;4.13;;;;;;;6.01;70.92;98888.28;4914259;29;20008;-95
2023/12/01 01:18:26;;;;;;;14.35;7.60;;;;;;;5.97;70.84;98884.50;4913056;29;20051;-95
2023/12/01 01:20:52;;;;;;;8.75;5.78;;;;;;;6.00;70.80;98892.03;4910913;29;20031;-96
2023/12/01 01:23:21;;;;;;;11.15;5.93;;;;;;;5.95;70.87;98878.59;4912951;29;20051;-95
2023/12/01 01:25:47;;;;;;;14.95;7.28;;;;;;;5.94;71.13;98880.44;4912347;29;20055;-95
2023/12/01 01:28:12;;;;;;;12.63;7.10;;;;;;;5.95;71.03;98892.75;4911597;29;20082;-96
2023/12/01 01:30:39;;;;;;;13.15;7.32;;;;;;;5.96;71.08;98891.72;4911967;29;20058;-96
2023/12/01 01:33:08;;;;;;;13.07;7.82;;;;;;;5.92;71.39;98881.75;4913676;29;20099;-96
2023/12/01 01:35:36;;;;;;;11.57;6.43;;;;;;;5.84;70.72;98870.44;4918353;29;20063;-96
2023/12/01 01:38:11;;;;;;;9.43;5.65;;;;;;;5.80;70.59;98866.66;4917885;29;20091;-95
2023/12/01 01:40:36;;;;;;;7.30;4.80;;;;;;;5.96;71.25;98886.38;4916963;29;20027;-96
2023/12/01 01:43:03;;;;;;;7.38;4.32;;;;;;;5.83;71.30;98852.81;4912891;29;20039;-96
2023/12/01 01:45:28;;;;;;;9.75;4.68;;;;;;;5.96;71.57;98867.66;4910626;29;20019;-96
2023/12/01 01:48:00;;;;;;;7.68;4.15;;;;;;;5.93;71.53;98870.78;4912764;29;20099;-95
2023/12/01 01:50:26;;;;;;;5.82;3.88;;;;;;;5.80;71.39;98847.94;4913757;29;20019;-94
2023/12/01 01:52:55;;;;;;;7.25;4.47;;;;;;;5.99;71.46;98867.16;4915089;29;20103;-96
2023/12/01 01:55:23;;;;;;;7.78;4.00;;;;;;;5.88;71.60;98846.69;4904534;29;20063;-96
2023/12/01 01:57:49;;;;;;;7.53;4.43;;;;;;;5.98;71.09;98868.22;4916632;29;20035;-96
2023/12/01 02:00:16;;;;;;;5.72;3.88;;;;;;;5.88;71.04;98841.38;4916740;29;20011;-95
2023/12/01 02:02:42;;;;;;;8.00;4.03;;;;;;;6.05;71.42;98871.50;4914135;29;20035;-96
2023/12/01 02:05:13;;;;;;;10.02;6.25;;;;;;;5.83;71.35;98839.44;4914054;29;20038;-95
2023/12/01 02:07:39;;;;;;;9.93;5.90;;;;;;;5.98;70.82;98856.75;4898511;29;20037;-96
2023/12/01 02:10:06;;;;;;;7.82;4.93;;;;;;;5.87;71.39;98837.88;4912829;29;20031;-96
2023/12/01 02:12:34;;;;;;;7.20;4.63;;;;;;;5.79;70.85;98824.16;4896584;29;20059;-96
2023/12/01 02:15:10;;;;;;;8.32;4.65;;;;;;;5.91;71.12;98843.53;4926882;29;20486;-96
2023/12/01 02:17:42;;;;;;;5.60;3.97;;;;;;;5.90;70.94;98843.78;4911478;29;20489;-96
2023/12/01 02:20:14;;;;;;;8.13;4.55;;;;;;;5.89;71.34;98848.31;4911528;29;20023;-96
2023/12/01 02:22:42;;;;;;;7.90;4.70;;;;;;;5.94;71.27;98851.03;4912137;29;20040;-96
2023/12/01 02:25:07;;;;;;;7.55;4.75;;;;;;;5.88;71.58;98850.19;4910808;29;20039;-96
2023/12/01 02:27:33;;;;;;;7.25;4.78;;;;;;;5.92;71.26;98844.34;4910805;29;20027;-96
2023/12/01 02:29:59;;;;;;;8.70;4.72;;;;;;;5.98;71.61;98854.06;4927731;29;20111;-96
2023/12/01 02:32:25;;;;;;;6.55;4.18;;;;;;;5.97;71.57;98850.56;4895642;29;20027;-95
2023/12/01 02:34:51;;;;;;;7.28;3.65;;;;;;;5.94;71.27;98840.34;4926969;29;20042;-95
2023/12/01 02:37:16;;;;;;;6.13;3.45;;;;;;;6.04;71.19;98847.72;4925376;29;20032;-96
2023/12/01 02:39:42;;;;;;;5.70;3.97;;;;;;;6.23;70.89;98862.34;4925949;29;20086;-96
2023/12/01 02:42:08;;;;;;;4.97;3.25;;;;;;;6.15;70.57;98820.03;4927481;29;20115;-96
2023/12/01 02:44:34;;;;;;;6.78;3.35;;;;;;;6.30;70.08;98845.28;4895938;29;20055;-96
2023/12/01 02:47:00;;;;;;;6.28;3.28;;;;;;;6.27;70.21;98814.53;4926009;29;20020;-96
2023/12/01 02:49:25;;;;;;;7.20;5.15;;;;;;;6.23;69.95;98808.06;4928885;29;20027;-95
2023/12/01 02:51:53;;;;;;;6.00;3.83;;;;;;;6.42;69.68;98837.91;4895899;29;20044;-96
2023/12/01 02:54:19;;;;;;;7.45;3.63;;;;;;;6.30;69.64;98802.50;4910613;29;20038;-96
2023/12/01 02:56:47;;;;;;;4.57;3.38;;;;;;;6.39;69.86;98812.50;4894446;29;20111;-96
2023/12/01 02:59:13;;;;;;;5.93;4.35;;;;;;;6.34;69.62;98809.75;4910739;29;20031;-95
2023/12/01 03:01:39;;;;;;;5.85;3.65;;;;;;;6.28;69.85;98792.06;4925830;29;20425;-95
2023/12/01 03:04:04;;;;;;;7.95;5.15;;;;;;;6.33;70.08;98793.97;4895242;29;20024;-96
2023/12/01 03:06:36;;;;;;;9.63;4.57;;;;;;;6.40;69.67;98791.91;4927159;29;20047;-96
2023/12/01 03:09:04;;;;;;;7.45;4.93;;;;;;;6.51;69.39;98803.47;4913162;29;20027;-95
2023/12/01 03:11:30;;;;;;;6.55;4.35;;;;;;;6.47;69.23;98806.69;4910025;29;20056;-96
2023/12/01 03:13:56;;;;;;;10.50;5.07;;;;;;;6.40;69.40;98795.38;4911457;29;20569;-96
2023/12/01 03:16:24;;;;;;;7.30;4.70;;;;;;;6.39;69.64;98782.25;4909601;29;20114;-96
2023/12/01 03:18:50;;;;;;;9.98;5.05;;;;;;;6.37;69.88;98779.03;4911174;29;20027;-96
2023/12/01 03:21:16;;;;;;;6.93;4.07;;;;;;;6.35;69.84;98783.81;4909270;29;20031;-96
2023/12/01 03:23:42;;;;;;;6.32;4.00;;;;;;;6.27;69.70;98775.22;4909982;29;20031;-95
2023/12/01 03:26:16;;;;;;;5.97;3.78;;;;;;;6.42;69.37;98774.53;4909391;29;20076;-96
2023/12/01 03:28:45;;;;;;;7.10;3.85;;;;;;;6.56;69.28;98774.09;4925558;29;20046;-96
2023/12/01 03:31:11;;;;;;;7.88;4.82;;;;;;;6.46;69.22;98786.31;4910080;29;20142;-96
2023/12/01 03:33:40;;;;;;;7.43;5.15;;;;;;;6.54;69.30;98795.75;4909805;29;20043;-95
2023/12/01 03:36:21;;;;;;;;;;;;;;;;;;;;;
2023/12/01 03:38:47;;;;;;;6.82;3.95;;;;;;;6.47;69.68;98784.44;4927071;29;20115;-95
2023/12/01 03:41:14;;;;;;;7.25;4.07;;;;;;;6.33;69.46;98762.72;4925286;29;20399;-94
2023/12/01 03:43:42;;;;;;;6.45;4.18;;;;;;;6.37;70.02;98773.69;4892975;29;20040;-95
2023/12/01 03:46:08;;;;;;;6.20;3.78;;;;;;;6.43;69.60;98796.72;4894488;29;20047;-95
2023/12/01 03:48:33;;;;;;;8.32;4.40;;;;;;;6.34;69.85;98768.84;4908832;29;20032;-96
2023/12/01 03:51:00;;;;;;;6.43;4.00;;;;;;;6.43;69.91;98786.84;4909356;29;20032;-96
2023/12/01 03:53:26;;;;;;;5.38;3.53;;;;;;;6.36;70.05;98772.06;4893318;29;20055;-95
2023/12/01 03:55:55;;;;;;;4.68;3.10;;;;;;;6.41;69.93;98772.94;4894538;29;20031;-96
2023/12/01 03:58:33;;;;;;;6.63;4.18;;;;;;;6.40;70.23;98776.66;4894721;29;20028;-95
2023/12/01 04:00:58;;;;;;;6.80;4.10;;;;;;;6.27;70.09;98753.03;4925628;29;20028;-95
2023/12/01 04:03:24;;;;;;;6.90;3.75;;;;;;;6.37;70.32;98782.53;4909081;29;20086;-95
2023/12/01 04:06:01;;;;;;;6.28;3.85;;;;;;;6.31;70.37;98766.66;4909395;29;20126;-96
2023/12/01 04:11:11;;;;;;;4.95;3.47;;;;;;;6.28;70.19;98778.69;4912430;28;20039;-95
2023/12/01 04:13:40;;;;;;;6.10;5.50;;;;;;;6.37;70.83;98781.69;4892467;29;20031;-95
2023/12/01 04:16:08;;;;;;;7.55;4.88;;;;;;;6.24;70.63;98766.91;4893245;29;20035;-96
2023/12/01 04:18:35;;;;;;;7.82;4.65;;;;;;;6.20;70.85;98747.06;4925007;29;20024;-95
2023/12/01 04:21:08;;;;;;;4.95;3.55;;;;;;;6.21;70.05;98759.41;4907996;29;20067;-95
2023/12/01 04:23:36;;;;;;;4.97;3.50;;;;;;;6.42;70.20;98787.91;4908360;29;20031;-95
2023/12/01 04:26:06;;;;;;;7.07;3.83;;;;;;;6.23;70.26;98758.06;4891488;29;20505;-94
2023/12/01 04:28:34;;;;;;;5.60;3.67;;;;;;;6.23;70.11;98751.94;4908001;29;20031;-95
2023/12/01 04:31:05;;;;;;;8.70;4.18;;;;;;;6.24;70.17;98767.69;4908636;29;20027;-94
2023/12/01 04:33:31;;;;;;;8.23;3.90;;;;;;;6.24;70.23;98761.53;4907430;29;20397;-96
2023/12/01 04:35:57;;;;;;;6.15;3.45;;;;;;;6.25;70.52;98763.97;4891610;29;20063;-94
2023/12/01 04:38:22;;;;;;;8.63;4.47;;;;;;;6.31;70.73;98761.31;4907058;29;20035;-95
2023/12/01 04:40:50;;;;;;;5.15;3.38;;;;;;;6.25;70.42;98765.84;4907347;29;20030;-95
2023/12/01 04:43:18;;;;;;;5.47;3.28;;;;;;;6.40;70.26;98781.19;4907061;29;20103;-95
2023/12/01 04:45:43;;;;;;;7.32;4.20;;;;;;;6.35;70.51;98781.97;4907717;29;20020;-93
2023/12/01 04:48:09;;;;;;;9.13;5.47;;;;;;;6.26;70.92;98767.44;4907829;29;20066;-94
2023/12/01 04:50:38;;;;;;;9.45;5.28;;;;;;;6.10;70.91;98747.81;4922005;29;20023;-94
2023/12/01 04:53:04;;;;;;;6.85;4.57;;;;;;;6.19;70.90;98754.31;4908572;29;20035;-93
2023/12/01 04:55:29;;;;;;;9.65;6.25;;;;;;;6.16;71.36;98757.47;4906139;29;20094;-94
2023/12/01 04:57:55;;;;;;;6.50;4.00;;;;;;;6.14;71.42;98737.41;4906523;29;20035;-93
2023/12/01 05:00:25;;;;;;;10.32;5.30;;;;;;;6.37;71.08;98773.69;4892073;29;20485;-94
2023/12/01 05:06:12;;;;;;;6.68;4.25;;;;;;;6.48;70.90;98765.47;4943285;29;20069;-93
2023/12/01 05:08:38;;;;;;;9.13;5.32;;;;;;;6.34;70.82;98742.13;4911398;29;20071;-95
2023/12/01 05:11:04;;;;;;;11.30;5.68;;;;;;;6.46;70.59;98759.59;4912429;29;20027;-93
2023/12/01 05:13:41;;;;;;;7.90;5.50;;;;;;;6.40;70.78;98733.06;4925699;29;20028;-93
2023/12/01 05:16:07;;;;;;;9.00;5.20;;;;;;;6.63;70.45;98775.47;4926428;29;20028;-94
2023/12/01 05:18:39;;;;;;;12.30;6.55;;;;;;;6.52;70.46;98731.00;4932353;29;20039;-96
2023/12/01 05:21:13;;;;;;;10.43;6.30;;;;;;;6.59;70.08;98739.59;4914336;29;20052;-95
2023/12/01 05:24:21;;;;;;;14.65;8.88;;;;;;;6.79;69.79;98765.69;4930812;29;20040;-96
2023/12/01 05:27:08;;;;;;;11.48;6.95;;;;;;;6.57;69.87;98735.59;4930930;29;20060;-94
2023/12/01 05:30:15;;;;;;;;;;;;;;;;;;;;;
2023/12/01 05:32:58;;;;;;;;;;;;;;;;;;;;;
2023/12/01 05:35:27;;;;;;;5.47;4.20;;;;;;;6.90;69.69;98761.19;4946928;28;20077;-96
2023/12/01 05:37:59;;;;;;;7.70;4.75;;;;;;;6.88;69.73;98740.03;4933569;28;20042;-96
2023/12/01 05:40:26;;;;;;;11.05;5.82;;;;;;;7.06;69.38;98764.78;4933315;28;20039;-95
2023/12/01 06:12:47;;;;;;;19.05;11.73;;;;;;;7.37;68.85;98714.03;5021230;28;20084;-95
2023/12/01 06:15:29;;;;;;;16.83;11.38;;;;;;;7.46;68.85;98726.63;4964005;28;20050;-95
2023/12/01 06:17:55;;;;;;;17.77;11.35;;;;;;;7.56;69.10;98723.16;4989886;28;20058;-94
2023/12/01 06:20:27;;;;;;;21.58;13.32;;;;;;;7.73;68.61;98741.69;4956314;28;20058;-95
2023/12/01 06:22:52;;;;;;;;;;;;;;;7.77;68.60;98750.81;4975371;28;20022;-96
2023/12/01 06:26:03;;;;;;;15.80;10.57;;;;;;;7.61;68.89;98717.00;4995528;28;19896;-96
2023/12/01 06:28:33;;;;;;;18.02;11.52;;;;;;;7.72;68.56;98715.97;5013457;28;20025;-96
2023/12/01 06:37:26;;;;;;;38.87;20.37;;;;;;;8.06;67.45;98731.53;4967165;29;20102;-94
2023/12/01 06:39:53;;;;;;;22.10;13.63;;;;;;;8.22;67.18;98735.03;4914259;29;20039;-96
2023/12/01 06:42:25;;;;;;;57.50;30.23;;;;;;;8.24;67.14;98724.84;4934393;29;20058;-96
2023/12/01 06:44:53;;;;;;;32.35;20.90;;;;;;;8.31;66.87;98741.47;4925975;29;20039;-96
2023/12/01 06:47:42;;;;;;;27.88;16.73;;;;;;;8.41;66.76;98729.97;4938803;29;20042;-96
2023/12/01 06:50:23;;;;;;;17.90;12.82;;;;;;;8.50;66.09;98712.22;4955270;29;20106;-96
2023/12/01 06:52:53;;;;;;;33.83;22.58;;;;;;;8.78;65.85;98745.75;4956926;28;20039;-96
2023/12/01 06:55:20;;;;;;;34.40;21.60;;;;;;;8.73;65.21;98729.63;4927586;29;20096;-95
2023/12/01 06:57:48;;;;;;;64.78;40.65;;;;;;;8.82;64.86;98737.91;5250538;23;20047;-95
2023/12/01 07:03:01;;;;;;;17.35;12.07;;;;;;;8.93;64.69;98711.88;4933088;29;20059;-94
2023/12/01 07:10:39;;;;;;;11.15;7.07;;;;;;;9.73;62.59;98735.13;5427907;23;20058;-95
2023/12/01 07:18:18;;;;;;;18.27;11.40;;;;;;;9.93;60.97;98718.06;5772660;23;20058;-96
2023/12/01 07:20:45;;;;;;;23.70;13.27;;;;;;;10.18;60.95;98752.81;4956353;28;20048;-95
2023/12/01 07:52:26;;;;;;;14.48;7.63;;;;;;;11.64;56.68;98732.97;1659287;22;20301;-93
2023/12/01 07:55:05;;;;;;;14.88;7.95;;;;;;;11.64;57.15;98723.00;5011563;28;20101;-95
2023/12/01 07:57:31;;;;;;;10.60;5.50;;;;;;;11.72;56.80;98713.44;4996131;28;20058;-95
2023/12/01 08:03:08;;;;;;;5.95;4.13;;;;;;;12.10;55.37;98726.94;5610125;22;20074;-96
2023/12/01 08:05:39;;;;;;;9.93;5.25;;;;;;;12.00;55.97;98709.00;5143599;23;20125;-95
2023/12/01 08:08:05;;;;;;;25.47;9.57;;;;;;;12.07;56.47;98716.72;4932381;29;20031;-93
2023/12/01 08:10:51;;;;;;;17.67;11.27;;;;;;;12.10;56.53;98716.16;4945278;29;20299;-96
2023/12/01 08:13:17;;;;;;;18.05;12.02;;;;;;;12.07;56.30;98703.22;4946125;28;20066;-95
2023/12/01 08:15:43;;;;;;;22.80;14.20;;;;;;;12.07;56.79;98724.81;4929149;29;20031;-94
2023/12/01 08:18:08;;;;;;;11.88;6.70;;;;;;;12.07;56.70;98719.41;4946534;29;20117;-94
2023/12/01 08:20:34;;;;;;;8.50;3.60;;;;;;;12.03;56.28;98707.63;4945372;28;20039;-96
2023/12/01 08:23:00;;;;;;;23.55;10.25;;;;;;;12.12;56.41;98703.97;4946521;28;20121;-93
2023/12/01 08:25:26;;;;;;;17.05;9.25;;;;;;;12.12;56.26;98703.97;4960035;29;20078;-93
2023/12/01 08:27:52;;;;;;;10.88;7.05;;;;;;;12.16;56.04;98704.19;4934938;29;20031;-94
2023/12/01 08:30:17;;;;;;;20.80;12.30;;;;;;;12.31;57.04;98701.22;4935671;29;20083;-95
2023/12/01 08:33:08;;;;;;;16.83;9.88;;;;;;;12.43;57.11;98722.34;4949352;29;20093;-95
2023/12/01 08:35:35;;;;;;;17.67;10.57;;;;;;;12.44;56.84;98701.53;4969827;28;20100;-96
2023/12/01 08:38:01;;;;;;;22.23;11.95;;;;;;;12.56;57.25;98725.38;4935898;29;20053;-95
2023/12/01 08:40:28;;;;;;;14.45;6.63;;;;;;;12.64;56.83;98713.88;4938574;29;20042;-95
2023/12/01 08:43:01;;;;;;;13.70;8.10;;;;;;;12.68;55.76;98718.38;4955839;29;20031;-94
2023/12/01 08:45:27;;;;;;;12.60;7.85;;;;;;;12.64;55.58;98694.97;4938768;29;20019;-96
2023/12/01 08:47:53;;;;;;;8.85;5.85;;;;;;;12.92;55.30;98728.19;4953836;29;20050;-96
2023/12/01 08:50:19;;;;;;;6.25;3.75;;;;;;;13.03;54.29;98720.69;4950492;29;20047;-96
2023/12/01 08:52:47;;;;;;;11.73;6.47;;;;;;;13.07;54.81;98706.31;4934072;29;20027;-95
2023/12/01 08:55:31;;;;;;;13.65;7.28;;;;;;;13.29;54.68;98721.00;4969798;29;20023;-95
2023/12/01 08:58:10;;;;;;;;;;;;;;;;;;;;;
2023/12/01 09:03:48;;;;;;;;;;;;;;;;;;;;;
2023/12/01 09:09:11;;;;;;;14.77;8.07;;;;;;;13.89;53.29;98674.75;5091724;22;20061;-95
2023/12/01 09:19:26;;;;;;;17.13;9.90;;;;;;;14.27;53.07;98641.88;5295770;23;20054;-96
2023/12/01 09:21:56;;;;;;;27.38;14.75;;;;;;;14.34;53.41;98644.94;4979424;28;20030;-96
2023/12/01 09:24:24;;;;;;;22.70;13.85;;;;;;;14.30;52.98;98630.44;4990845;28;20068;-95
2023/12/01 09:26:56;;;;;;;27.05;15.80;;;;;;;14.34;53.27;98639.53;4993191;28;20052;-96
2023/12/01 09:29:21;;;;;;;30.05;15.65;;;;;;;14.38;52.91;98649.72;4980741;28;20022;-94
2023/12/01 09:38:36;;;;;;;14.40;8.68;;;;;;;14.53;52.33;98644.72;4917285;28;20044;-96
2023/12/01 09:41:14;;;;;;;9.00;5.13;;;;;;;14.57;51.49;98631.38;4979130;28;20065;-96
2023/12/01 09:43:45;;;;;;;12.90;7.47;;;;;;;14.60;50.59;98619.91;4973871;28;20047;-96
2023/12/01 09:46:34;;;;;;;6.35;4.20;;;;;;;14.73;50.16;98619.00;4971367;28;20011;-96
2023/12/01 09:52:27;;;;;;;15.57;6.88;;;;;;;15.21;50.61;98620.06;4923024;28;20136;-96
2023/12/01 09:55:09;;;;;;;10.52;5.68;;;;;;;15.26;50.41;98598.19;4977827;28;20023;-96
2023/12/01 09:57:38;;;;;;;14.23;7.60;;;;;;;15.46;49.83;98596.78;4993368;28;20035;-95
2023/12/01 10:00:35;;;;;;;16.13;6.80;;;;;;;15.67;49.07;98604.25;4975863;28;20038;-95
2023/12/01 10:03:03;;;;;;;8.60;4.13;;;;;;;15.73;47.93;98600.28;4993606;28;20058;-96
2023/12/01 10:05:47;;;;;;;10.00;3.95;;;;;;;15.85;48.22;98624.03;4975539;28;20034;-95
2023/12/01 10:10:54;;;;;;;10.10;3.55;;;;;;;15.95;48.53;98621.78;4986546;28;20104;-96
2023/12/01 10:13:54;;;;;;;7.15;3.22;;;;;;;15.82;48.16;98587.50;4940282;28;20130;-96
2023/12/01 10:16:22;;;;;;;6.70;3.20;;;;;;;16.05;47.88;98615.22;4949705;28;20488;-94
2023/12/01 10:19:01;;;;;;;11.23;4.50;;;;;;;16.12;48.34;98612.00;4962284;28;20027;-95
2023/12/01 10:21:47;;;;;;;10.32;4.55;;;;;;;16.07;48.78;98618.41;4961631;28;20027;-95
2023/12/01 10:24:25;;;;;;;5.55;3.80;;;;;;;16.26;48.31;98625.41;4960638;28;20027;-94
2023/12/01 10:26:52;;;;;;;4.07;2.70;;;;;;;16.40;47.32;98615.13;4963756;28;20102;-96
2023/12/01 10:29:33;;;;;;;4.07;2.88;;;;;;;16.40;47.59;98593.38;4935894;29;20039;-96
2023/12/01 10:32:07;;;;;;;6.15;3.53;;;;;;;16.57;47.66;98603.38;4939536;29;20031;-96
2023/12/01 10:37:39;;;;;;;8.25;4.72;;;;;;;16.68;47.14;98577.41;5075358;23;20050;-96
2023/12/01 10:40:05;;;;;;;9.15;4.35;;;;;;;16.91;46.20;98596.19;4952378;28;20035;-96
2023/12/01 10:42:34;;;;;;;6.18;2.90;;;;;;;17.06;45.53;98592.91;4948699;28;20034;-96
2023/12/01 10:45:04;;;;;;;6.80;3.85;;;;;;;17.08;45.80;98563.44;4934067;28;20046;-96
2023/12/01 10:47:31;;;;;;;7.68;3.50;;;;;;;17.19;46.18;98568.50;4946469;28;20026;-95
2023/12/01 10:50:00;;;;;;;9.15;3.20;;;;;;;17.29;45.55;98570.81;4933186;28;20401;-96
2023/12/01 10:52:25;;;;;;;5.28;2.97;;;;;;;17.35;46.08;98572.19;4951179;28;20027;-95
2023/12/01 10:55:04;;;;;;;7.93;3.17;;;;;;;17.37;46.04;98583.56;4935380;28;20029;-96
2023/12/01 10:57:39;;;;;;;5.50;2.90;;;;;;;17.42;45.36;98601.59;4937452;28;20034;-95
2023/12/01 11:00:19;;;;;;;5.18;1.92;;;;;;;17.32;45.07;98572.84;4933600;28;20034;-96
2023/12/01 11:02:51;;;;;;;4.07;2.17;;;;;;;17.24;45.25;98571.00;4939456;28;20023;-96
2023/12/01 11:05:34;;;;;;;7.50;2.50;;;;;;;17.41;44.94;98603.53;4973955;28;20031;-96
2023/12/01 11:08:16;;;;;;;3.35;1.63;;;;;;;17.29;45.15;98578.97;4959590;28;20030;-95
2023/12/01 11:11:10;;;;;;;6.43;3.78;;;;;;;17.26;45.11;98569.53;4946792;29;20103;-94
2023/12/01 11:14:51;;;;;;;6.57;4.22;;;;;;;17.13;45.32;98563.22;4929485;29;20055;-95
2023/12/01 11:18:06;;;;;;;11.02;5.85;;;;;;;17.04;46.19;98559.78;4911997;29;20090;-96
2023/12/01 11:24:46;;;;;;;4.75;2.55;;;;;;;16.98;46.82;98554.91;4900117;29;20050;-96
2023/12/01 11:27:30;;;;;;;7.93;3.38;;;;;;;17.05;46.20;98563.31;4871113;29;20045;-95
2023/12/01 11:38:01;;;;;;;4.00;2.97;;;;;;;17.50;44.74;98590.63;5658685;23;20283;-95
2023/12/01 13:43:18;;;;;;;6.38;4.80;;;;;;;16.39;48.61;98586.34;5439300;22;20083;-95
2023/12/01 13:46:22;;;;;;;;;;;;;;;;;;;;;
2023/12/01 13:49:20;;;;;;;8.57;3.08;;;;;;;16.25;48.32;98574.91;5008353;28;20074;-95
2023/12/01 13:58:23;;;;;;;4.60;2.40;;;;;;;16.23;48.65;98605.13;4988093;23;20054;-96
2023/12/01 14:51:14;;;;;;;9.77;6.50;;;;;;;15.31;51.06;98602.66;6022414;22;20025;-95
2023/12/01 14:53:40;;;;;;;12.52;7.22;;;;;;;15.13;51.81;98570.13;4934738;28;20039;-94
2023/12/01 15:28:17;;;;;;;12.48;7.30;;;;;;;14.44;54.47;98575.34;6031720;23;20013;-96
2023/12/01 15:33:32;;;;;;;22.40;11.80;;;;;;;14.48;55.17;98598.00;5493658;23;20065;-96
2023/12/01 16:48:03;;;;;;;15.55;9.35;;;;;;;13.06;57.81;98614.69;5021130;28;20056;-94
2023/12/01 16:50:28;;;;;;;14.77;9.27;;;;;;;12.92;58.53;98604.69;4972905;28;20089;-95
2023/12/01 16:52:58;;;;;;;16.90;10.00;;;;;;;12.87;58.59;98596.72;4972413;28;20061;-95
2023/12/01 16:55:24;;;;;;;20.85;14.73;;;;;;;12.80;59.34;98593.59;4991102;28;20096;-94
2023/12/01 19:36:01;;;;;;;;;;;;;;;;;;;;;
2023/12/01 19:38:29;;;;;;;18.48;10.05;;;;;;;12.11;61.84;98629.47;4994482;28;20062;-96
2023/12/01 19:50:45;;;;;;;11.37;7.37;;;;;;;11.80;62.62;98615.69;4916696;29;20161;-96
2023/12/01 19:54:03;;;;;;;;;;;;;;;;;;;;;
2023/12/01 19:56:46;;;;;;;11.23;5.75;;;;;;;11.79;62.68;98619.50;4863029;29;20065;-96
2023/12/01 19:59:42;;;;;;;12.13;5.47;;;;;;;11.74;62.48;98603.38;4840661;29;20557;-96
2023/12/01 20:02:25;;;;;;;12.00;7.80;;;;;;;11.89;62.74;98640.94;4788240;29;20103;-96
2023/12/01 20:05:12;;;;;;;15.57;9.23;;;;;;;11.71;63.09;98628.25;4781075;30;20107;-95
2023/12/01 20:08:05;;;;;;;23.92;9.73;;;;;;;11.71;63.15;98639.03;4764934;30;20044;-95
2023/12/01 20:10:51;;;;;;;20.75;10.43;;;;;;;11.48;63.86;98609.19;4787893;30;20035;-95
2023/12/01 20:13:39;;;;;;;24.08;12.07;;;;;;;11.56;63.94;98636.56;4787480;30;20040;-96
2023/12/01 20:16:12;;;;;;;23.42;12.82;;;;;;;11.35;63.90;98625.28;4770352;30;20052;-95
2023/12/01 20:18:39;;;;;;;23.63;14.32;;;;;;;11.40;64.12;98633.31;4781333;30;20043;-95
2023/12/01 20:21:05;;;;;;;21.80;12.63;;;;;;;11.30;64.00;98620.78;4782452;30;20098;-96
2023/12/01 20:23:31;;;;;;;21.92;12.90;;;;;;;11.38;64.39;98630.91;4782807;30;20039;-94
2023/12/01 20:25:59;;;;;;;19.17;11.38;;;;;;;11.15;64.19;98607.53;4767995;30;20115;-95
2023/12/01 20:28:25;;;;;;;20.85;13.27;;;;;;;11.13;64.69;98618.59;4818771;29;20046;-95
2023/12/01 20:30:51;;;;;;;15.65;10.43;;;;;;;11.18;64.36;98640.06;4827777;29;20038;-96
2023/12/01 20:33:17;;;;;;;16.85;10.35;;;;;;;11.09;64.60;98617.56;4818677;29;20050;-95
2023/12/01 20:35:43;;;;;;;19.38;10.25;;;;;;;11.08;64.56;98619.47;4844421;29;20052;-96
2023/12/01 20:38:08;;;;;;;17.30;11.45;;;;;;;11.13;64.48;98627.47;4873628;29;20044;-94
2023/12/01 20:40:34;;;;;;;14.85;10.18;;;;;;;10.98;64.59;98602.59;4872454;29;20059;-95
2023/12/01 20:42:59;;;;;;;16.63;9.95;;;;;;;10.96;65.04;98612.88;4887463;29;20079;-96
2023/12/01 20:45:25;;;;;;;35.65;15.18;;;;;;;11.07;64.70;98623.22;4874394;29;20123;-96
2023/12/01 20:47:53;;;;;;;51.38;20.42;;;;;;;11.01;64.84;98613.63;4873985;29;20032;-95
2023/12/01 20:50:22;;;;;;;48.17;20.70;;;;;;;10.94;65.47;98615.88;4911425;29;20059;-96
2023/12/01 20:52:58;;;;;;;45.15;20.33;;;;;;;10.97;65.57;98623.38;4912428;29;20035;-95
2023/12/01 20:55:24;;;;;;;42.55;17.23;;;;;;;10.96;65.66;98618.25;4898250;29;20044;-96
2023/12/01 20:57:53;;;;;;;25.42;11.68;;;;;;;10.93;65.73;98598.09;4911065;29;20512;-95
2023/12/01 21:00:21;;;;;;;19.63;9.82;;;;;;;10.96;65.74;98608.31;4894653;29;20490;-96
2023/12/01 21:02:47;;;;;;;15.30;8.50;;;;;;;11.00;65.66;98617.41;4895497;29;20115;-96
2023/12/01 21:05:13;;;;;;;25.42;10.30;;;;;;;10.99;65.42;98613.09;4926108;28;20050;-96
2023/12/01 23:04:56;;;;;;;;;;;;;;;11.88;61.07;98561.09;4962653;29;20050;-96
2023/12/01 23:08:14;;;;;;;;;;;;;;;;;;;;;
2023/12/01 23:21:35;;;;;;;;;;;;;;;;;;;;;
